sensor_id;sensor_type;location;lat;lon;timestamp;P1;durP1;ratioP1;P2;durP2;ratioP2
52320;SDS011;38261;54.090;13.382;2023-02-19T00:00:38;8.47;;;3.37;;
52320;SDS011;38261;54.090;13.382;2023-02-19T00:02:00;9.37;;;3.20;;
52320;SDS011;38261;54.090;13.382;2023-02-19T00:03:22;10.57;;;3.60;;
52320;SDS011;38261;54.090;13.382;2023-02-19T00:04:44;6.90;;;3.00;;
52320;SDS011;38261;54.090;13.382;2023-02-19T00:06:07;9.60;;;3.13;;
52320;SDS011;38261;54.090;13.382;2023-02-19T00:07:31;5.10;;;3.20;;
52320;SDS011;38261;54.090;13.382;2023-02-19T00:08:53;12.70;;;3.70;;
52320;SDS011;38261;54.090;13.382;2023-02-19T00:10:15;8.53;;;3.07;;
52320;SDS011;38261;54.090;13.382;2023-02-19T00:11:37;9.37;;;2.93;;
52320;SDS011;38261;54.090;13.382;2023-02-19T00:13:00;12.60;;;3.50;;
52320;SDS011;38261;54.090;13.382;2023-02-19T00:14:22;12.63;;;3.43;;
52320;SDS011;38261;54.090;13.382;2023-02-19T00:15:44;12.07;;;3.47;;
52320;SDS011;38261;54.090;13.382;2023-02-19T00:17:06;15.90;;;3.10;;
52320;SDS011;38261;54.090;13.382;2023-02-19T00:18:28;10.07;;;2.63;;
52320;SDS011;38261;54.090;13.382;2023-02-19T00:19:51;26.43;;;3.33;;
52320;SDS011;38261;54.090;13.382;2023-02-19T00:21:13;17.07;;;4.77;;
52320;SDS011;38261;54.090;13.382;2023-02-19T00:22:36;11.10;;;3.10;;
52320;SDS011;38261;54.090;13.382;2023-02-19T00:24:01;7.70;;;3.10;;
52320;SDS011;38261;54.090;13.382;2023-02-19T00:25:25;13.90;;;3.60;;
52320;SDS011;38261;54.090;13.382;2023-02-19T00:26:47;7.57;;;3.23;;
52320;SDS011;38261;54.090;13.382;2023-02-19T00:28:09;6.23;;;3.60;;
52320;SDS011;38261;54.090;13.382;2023-02-19T00:29:31;10.70;;;3.33;;
52320;SDS011;38261;54.090;13.382;2023-02-19T00:30:53;16.90;;;4.83;;
52320;SDS011;38261;54.090;13.382;2023-02-19T00:32:15;11.40;;;3.20;;
52320;SDS011;38261;54.090;13.382;2023-02-19T00:33:37;12.10;;;4.13;;
52320;SDS011;38261;54.090;13.382;2023-02-19T00:34:59;9.63;;;3.43;;
52320;SDS011;38261;54.090;13.382;2023-02-19T00:36:22;10.57;;;3.00;;
52320;SDS011;38261;54.090;13.382;2023-02-19T00:37:45;5.90;;;2.60;;
52320;SDS011;38261;54.090;13.382;2023-02-19T00:39:07;16.00;;;3.10;;
52320;SDS011;38261;54.090;13.382;2023-02-19T00:40:34;14.17;;;3.33;;
52320;SDS011;38261;54.090;13.382;2023-02-19T00:41:56;9.07;;;3.13;;
52320;SDS011;38261;54.090;13.382;2023-02-19T00:43:19;13.90;;;3.53;;
52320;SDS011;38261;54.090;13.382;2023-02-19T00:44:42;11.87;;;3.30;;
52320;SDS011;38261;54.090;13.382;2023-02-19T00:46:04;13.50;;;3.13;;
52320;SDS011;38261;54.090;13.382;2023-02-19T00:47:26;15.20;;;3.40;;
52320;SDS011;38261;54.090;13.382;2023-02-19T00:48:48;15.10;;;3.10;;
52320;SDS011;38261;54.090;13.382;2023-02-19T00:50:10;13.80;;;3.67;;
52320;SDS011;38261;54.090;13.382;2023-02-19T00:51:34;12.03;;;3.63;;
52320;SDS011;38261;54.090;13.382;2023-02-19T00:52:58;10.67;;;3.37;;
52320;SDS011;38261;54.090;13.382;2023-02-19T00:54:20;10.33;;;3.00;;
52320;SDS011;38261;54.090;13.382;2023-02-19T00:55:43;13.90;;;3.53;;
52320;SDS011;38261;54.090;13.382;2023-02-19T00:57:05;12.23;;;3.43;;
52320;SDS011;38261;54.090;13.382;2023-02-19T00:58:27;9.67;;;4.23;;
52320;SDS011;38261;54.090;13.382;2023-02-19T00:59:49;11.33;;;3.30;;
52320;SDS011;38261;54.090;13.382;2023-02-19T01:01:11;16.03;;;4.20;;
52320;SDS011;38261;54.090;13.382;2023-02-19T01:02:33;14.60;;;3.07;;
52320;SDS011;38261;54.090;13.382;2023-02-19T01:03:55;7.20;;;3.30;;
52320;SDS011;38261;54.090;13.382;2023-02-19T01:05:17;10.50;;;3.80;;
52320;SDS011;38261;54.090;13.382;2023-02-19T01:06:40;7.43;;;3.40;;
52320;SDS011;38261;54.090;13.382;2023-02-19T01:08:02;6.33;;;2.70;;
52320;SDS011;38261;54.090;13.382;2023-02-19T01:09:24;9.30;;;3.10;;
52320;SDS011;38261;54.090;13.382;2023-02-19T01:10:46;21.93;;;2.93;;
52320;SDS011;38261;54.090;13.382;2023-02-19T01:12:09;15.80;;;4.27;;
52320;SDS011;38261;54.090;13.382;2023-02-19T01:13:31;7.07;;;3.30;;
52320;SDS011;38261;54.090;13.382;2023-02-19T01:14:53;8.03;;;2.83;;
52320;SDS011;38261;54.090;13.382;2023-02-19T01:16:17;14.03;;;3.20;;
52320;SDS011;38261;54.090;13.382;2023-02-19T01:17:41;6.30;;;3.40;;
52320;SDS011;38261;54.090;13.382;2023-02-19T01:19:04;7.27;;;3.00;;
52320;SDS011;38261;54.090;13.382;2023-02-19T01:20:26;17.60;;;3.63;;
52320;SDS011;38261;54.090;13.382;2023-02-19T01:21:48;13.27;;;2.90;;
52320;SDS011;38261;54.090;13.382;2023-02-19T01:23:11;13.73;;;3.70;;
52320;SDS011;38261;54.090;13.382;2023-02-19T01:24:34;11.70;;;3.47;;
52320;SDS011;38261;54.090;13.382;2023-02-19T01:25:56;13.80;;;3.97;;
52320;SDS011;38261;54.090;13.382;2023-02-19T01:27:18;17.33;;;3.90;;
52320;SDS011;38261;54.090;13.382;2023-02-19T01:28:40;16.20;;;4.47;;
52320;SDS011;38261;54.090;13.382;2023-02-19T01:30:03;12.60;;;4.07;;
52320;SDS011;38261;54.090;13.382;2023-02-19T01:31:25;16.60;;;3.83;;
52320;SDS011;38261;54.090;13.382;2023-02-19T01:32:48;17.60;;;4.93;;
52320;SDS011;38261;54.090;13.382;2023-02-19T01:34:10;20.53;;;4.20;;
52320;SDS011;38261;54.090;13.382;2023-02-19T01:35:33;8.53;;;3.90;;
52320;SDS011;38261;54.090;13.382;2023-02-19T01:36:59;23.10;;;4.13;;
52320;SDS011;38261;54.090;13.382;2023-02-19T01:38:21;10.87;;;3.83;;
52320;SDS011;38261;54.090;13.382;2023-02-19T01:39:43;15.83;;;4.37;;
52320;SDS011;38261;54.090;13.382;2023-02-19T01:41:06;13.53;;;4.00;;
52320;SDS011;38261;54.090;13.382;2023-02-19T01:42:30;15.07;;;3.67;;
52320;SDS011;38261;54.090;13.382;2023-02-19T01:45:37;17.30;;;4.37;;
52320;SDS011;38261;54.090;13.382;2023-02-19T01:46:59;15.87;;;4.27;;
52320;SDS011;38261;54.090;13.382;2023-02-19T01:49:53;11.63;;;3.63;;
52320;SDS011;38261;54.090;13.382;2023-02-19T01:51:17;12.23;;;3.13;;
52320;SDS011;38261;54.090;13.382;2023-02-19T01:52:41;13.60;;;3.70;;
52320;SDS011;38261;54.090;13.382;2023-02-19T01:54:04;12.20;;;3.90;;
52320;SDS011;38261;54.090;13.382;2023-02-19T01:55:28;13.30;;;4.00;;
52320;SDS011;38261;54.090;13.382;2023-02-19T01:56:50;14.90;;;3.80;;
52320;SDS011;38261;54.090;13.382;2023-02-19T01:58:14;10.73;;;4.03;;
52320;SDS011;38261;54.090;13.382;2023-02-19T01:59:37;8.57;;;4.27;;
52320;SDS011;38261;54.090;13.382;2023-02-19T02:01:00;14.00;;;3.60;;
52320;SDS011;38261;54.090;13.382;2023-02-19T02:02:25;16.30;;;4.27;;
52320;SDS011;38261;54.090;13.382;2023-02-19T02:03:48;12.47;;;3.80;;
52320;SDS011;38261;54.090;13.382;2023-02-19T02:05:16;13.30;;;4.30;;
52320;SDS011;38261;54.090;13.382;2023-02-19T02:06:53;12.13;;;3.73;;
52320;SDS011;38261;54.090;13.382;2023-02-19T02:08:16;10.20;;;3.90;;
52320;SDS011;38261;54.090;13.382;2023-02-19T02:09:57;13.43;;;4.20;;
52320;SDS011;38261;54.090;13.382;2023-02-19T02:11:39;10.50;;;3.90;;
52320;SDS011;38261;54.090;13.382;2023-02-19T02:13:05;11.23;;;4.37;;
52320;SDS011;38261;54.090;13.382;2023-02-19T02:14:28;15.70;;;3.87;;
52320;SDS011;38261;54.090;13.382;2023-02-19T02:15:58;20.43;;;4.27;;
52320;SDS011;38261;54.090;13.382;2023-02-19T02:32:30;11.37;;;4.10;;
52320;SDS011;38261;54.090;13.382;2023-02-19T02:34:03;13.00;;;4.80;;
52320;SDS011;38261;54.090;13.382;2023-02-19T02:35:42;15.70;;;4.63;;
52320;SDS011;38261;54.090;13.382;2023-02-19T02:37:05;11.60;;;3.60;;
52320;SDS011;38261;54.090;13.382;2023-02-19T02:38:30;18.93;;;5.30;;
52320;SDS011;38261;54.090;13.382;2023-02-19T02:39:55;8.20;;;5.10;;
52320;SDS011;38261;54.090;13.382;2023-02-19T02:41:19;12.37;;;4.17;;
52320;SDS011;38261;54.090;13.382;2023-02-19T02:42:41;13.73;;;4.30;;
52320;SDS011;38261;54.090;13.382;2023-02-19T02:44:04;18.43;;;5.13;;
52320;SDS011;38261;54.090;13.382;2023-02-19T02:45:30;16.60;;;5.00;;
52320;SDS011;38261;54.090;13.382;2023-02-19T02:46:56;8.80;;;4.00;;
52320;SDS011;38261;54.090;13.382;2023-02-19T02:50:17;16.07;;;4.47;;
52320;SDS011;38261;54.090;13.382;2023-02-19T02:51:50;12.47;;;4.30;;
52320;SDS011;38261;54.090;13.382;2023-02-19T02:53:28;19.43;;;4.87;;
52320;SDS011;38261;54.090;13.382;2023-02-19T02:55:14;12.90;;;4.20;;
52320;SDS011;38261;54.090;13.382;2023-02-19T02:56:37;10.53;;;4.20;;
52320;SDS011;38261;54.090;13.382;2023-02-19T02:58:02;11.20;;;4.17;;
52320;SDS011;38261;54.090;13.382;2023-02-19T02:59:26;23.87;;;5.50;;
52320;SDS011;38261;54.090;13.382;2023-02-19T03:00:53;17.00;;;3.80;;
52320;SDS011;38261;54.090;13.382;2023-02-19T03:02:38;8.40;;;3.17;;
52320;SDS011;38261;54.090;13.382;2023-02-19T03:04:04;13.53;;;4.33;;
52320;SDS011;38261;54.090;13.382;2023-02-19T03:05:38;13.43;;;4.00;;
52320;SDS011;38261;54.090;13.382;2023-02-19T03:07:13;18.33;;;3.70;;
52320;SDS011;38261;54.090;13.382;2023-02-19T03:08:37;14.60;;;3.60;;
52320;SDS011;38261;54.090;13.382;2023-02-19T03:10:05;17.50;;;4.27;;
52320;SDS011;38261;54.090;13.382;2023-02-19T03:11:30;14.30;;;3.83;;
52320;SDS011;38261;54.090;13.382;2023-02-19T03:13:34;8.70;;;3.43;;
52320;SDS011;38261;54.090;13.382;2023-02-19T03:15:16;11.37;;;3.30;;
52320;SDS011;38261;54.090;13.382;2023-02-19T03:16:59;14.87;;;3.67;;
52320;SDS011;38261;54.090;13.382;2023-02-19T03:18:47;16.23;;;4.00;;
52320;SDS011;38261;54.090;13.382;2023-02-19T03:20:32;12.57;;;3.97;;
52320;SDS011;38261;54.090;13.382;2023-02-19T03:22:05;14.97;;;4.50;;
52320;SDS011;38261;54.090;13.382;2023-02-19T03:23:31;14.60;;;5.60;;
52320;SDS011;38261;54.090;13.382;2023-02-19T03:25:29;7.93;;;3.83;;
52320;SDS011;38261;54.090;13.382;2023-02-19T03:27:32;13.87;;;4.50;;
52320;SDS011;38261;54.090;13.382;2023-02-19T03:28:55;7.30;;;4.10;;
52320;SDS011;38261;54.090;13.382;2023-02-19T03:30:39;10.10;;;5.07;;
52320;SDS011;38261;54.090;13.382;2023-02-19T03:32:11;13.07;;;3.90;;
52320;SDS011;38261;54.090;13.382;2023-02-19T03:33:55;13.20;;;3.50;;
52320;SDS011;38261;54.090;13.382;2023-02-19T03:35:20;11.33;;;3.90;;
52320;SDS011;38261;54.090;13.382;2023-02-19T03:36:57;13.93;;;4.20;;
52320;SDS011;38261;54.090;13.382;2023-02-19T03:38:40;6.00;;;3.90;;
52320;SDS011;38261;54.090;13.382;2023-02-19T03:40:08;14.23;;;3.80;;
52320;SDS011;38261;54.090;13.382;2023-02-19T03:41:42;8.30;;;3.60;;
52320;SDS011;38261;54.090;13.382;2023-02-19T03:43:33;8.93;;;3.60;;
52320;SDS011;38261;54.090;13.382;2023-02-19T03:45:08;13.87;;;3.63;;
52320;SDS011;38261;54.090;13.382;2023-02-19T03:46:47;10.43;;;3.30;;
52320;SDS011;38261;54.090;13.382;2023-02-19T03:49:45;11.33;;;3.67;;
52320;SDS011;38261;54.090;13.382;2023-02-19T03:51:31;13.70;;;3.60;;
52320;SDS011;38261;54.090;13.382;2023-02-19T03:53:09;8.60;;;4.30;;
52320;SDS011;38261;54.090;13.382;2023-02-19T03:56:21;7.33;;;2.90;;
52320;SDS011;38261;54.090;13.382;2023-02-19T03:57:57;22.50;;;4.30;;
52320;SDS011;38261;54.090;13.382;2023-02-19T03:59:37;14.23;;;3.10;;
52320;SDS011;38261;54.090;13.382;2023-02-19T04:01:06;21.63;;;3.80;;
52320;SDS011;38261;54.090;13.382;2023-02-19T04:02:40;9.27;;;3.07;;
52320;SDS011;38261;54.090;13.382;2023-02-19T04:04:31;13.80;;;4.50;;
52320;SDS011;38261;54.090;13.382;2023-02-19T04:05:59;8.53;;;3.57;;
52320;SDS011;38261;54.090;13.382;2023-02-19T04:07:23;7.67;;;3.67;;
52320;SDS011;38261;54.090;13.382;2023-02-19T04:08:48;11.13;;;3.30;;
52320;SDS011;38261;54.090;13.382;2023-02-19T04:10:12;17.17;;;3.37;;
52320;SDS011;38261;54.090;13.382;2023-02-19T04:11:36;11.67;;;3.73;;
52320;SDS011;38261;54.090;13.382;2023-02-19T04:13:04;14.83;;;3.80;;
52320;SDS011;38261;54.090;13.382;2023-02-19T04:14:41;19.40;;;3.83;;
52320;SDS011;38261;54.090;13.382;2023-02-19T04:16:12;12.63;;;2.93;;
52320;SDS011;38261;54.090;13.382;2023-02-19T04:17:46;11.80;;;3.43;;
52320;SDS011;38261;54.090;13.382;2023-02-19T04:19:15;25.30;;;5.67;;
52320;SDS011;38261;54.090;13.382;2023-02-19T04:20:42;19.03;;;4.20;;
52320;SDS011;38261;54.090;13.382;2023-02-19T04:22:05;11.90;;;3.40;;
52320;SDS011;38261;54.090;13.382;2023-02-19T04:23:31;18.50;;;3.60;;
52320;SDS011;38261;54.090;13.382;2023-02-19T04:24:57;9.80;;;3.37;;
52320;SDS011;38261;54.090;13.382;2023-02-19T04:26:19;16.50;;;3.93;;
52320;SDS011;38261;54.090;13.382;2023-02-19T04:27:43;12.30;;;3.90;;
52320;SDS011;38261;54.090;13.382;2023-02-19T04:29:06;9.13;;;3.77;;
52320;SDS011;38261;54.090;13.382;2023-02-19T04:30:28;16.20;;;4.10;;
52320;SDS011;38261;54.090;13.382;2023-02-19T04:31:50;10.10;;;3.20;;
52320;SDS011;38261;54.090;13.382;2023-02-19T04:33:12;14.40;;;4.10;;
52320;SDS011;38261;54.090;13.382;2023-02-19T04:34:34;11.57;;;3.80;;
52320;SDS011;38261;54.090;13.382;2023-02-19T04:35:57;13.23;;;3.97;;
52320;SDS011;38261;54.090;13.382;2023-02-19T04:37:19;11.17;;;3.93;;
52320;SDS011;38261;54.090;13.382;2023-02-19T04:38:41;12.57;;;3.90;;
52320;SDS011;38261;54.090;13.382;2023-02-19T04:40:03;12.87;;;3.90;;
52320;SDS011;38261;54.090;13.382;2023-02-19T04:41:25;11.93;;;3.67;;
52320;SDS011;38261;54.090;13.382;2023-02-19T04:42:47;12.13;;;3.90;;
52320;SDS011;38261;54.090;13.382;2023-02-19T04:44:09;13.60;;;3.60;;
52320;SDS011;38261;54.090;13.382;2023-02-19T04:45:31;12.03;;;3.17;;
52320;SDS011;38261;54.090;13.382;2023-02-19T04:46:54;10.43;;;3.50;;
52320;SDS011;38261;54.090;13.382;2023-02-19T04:48:16;15.07;;;3.30;;
52320;SDS011;38261;54.090;13.382;2023-02-19T04:49:38;8.33;;;3.13;;
52320;SDS011;38261;54.090;13.382;2023-02-19T04:51:03;7.10;;;3.57;;
52320;SDS011;38261;54.090;13.382;2023-02-19T04:52:29;12.93;;;4.27;;
52320;SDS011;38261;54.090;13.382;2023-02-19T04:53:51;10.53;;;4.17;;
52320;SDS011;38261;54.090;13.382;2023-02-19T04:55:13;16.00;;;3.80;;
52320;SDS011;38261;54.090;13.382;2023-02-19T04:56:35;10.60;;;3.87;;
52320;SDS011;38261;54.090;13.382;2023-02-19T04:57:58;15.37;;;3.90;;
52320;SDS011;38261;54.090;13.382;2023-02-19T04:59:20;15.93;;;4.10;;
52320;SDS011;38261;54.090;13.382;2023-02-19T05:00:43;13.13;;;4.20;;
52320;SDS011;38261;54.090;13.382;2023-02-19T05:02:05;12.10;;;3.73;;
52320;SDS011;38261;54.090;13.382;2023-02-19T05:03:27;8.97;;;3.67;;
52320;SDS011;38261;54.090;13.382;2023-02-19T05:04:49;12.17;;;4.50;;
52320;SDS011;38261;54.090;13.382;2023-02-19T05:06:11;10.03;;;3.63;;
52320;SDS011;38261;54.090;13.382;2023-02-19T05:07:35;11.73;;;4.30;;
52320;SDS011;38261;54.090;13.382;2023-02-19T05:08:57;11.10;;;3.90;;
52320;SDS011;38261;54.090;13.382;2023-02-19T05:10:19;22.93;;;3.60;;
52320;SDS011;38261;54.090;13.382;2023-02-19T05:11:41;14.50;;;4.00;;
52320;SDS011;38261;54.090;13.382;2023-02-19T05:13:03;9.60;;;3.53;;
52320;SDS011;38261;54.090;13.382;2023-02-19T05:14:25;24.37;;;4.30;;
52320;SDS011;38261;54.090;13.382;2023-02-19T05:15:54;13.23;;;3.43;;
52320;SDS011;38261;54.090;13.382;2023-02-19T05:17:24;18.90;;;3.63;;
52320;SDS011;38261;54.090;13.382;2023-02-19T05:18:46;8.60;;;3.33;;
52320;SDS011;38261;54.090;13.382;2023-02-19T05:20:08;12.20;;;3.77;;
52320;SDS011;38261;54.090;13.382;2023-02-19T05:21:31;10.60;;;3.17;;
52320;SDS011;38261;54.090;13.382;2023-02-19T05:22:53;14.33;;;3.20;;
52320;SDS011;38261;54.090;13.382;2023-02-19T05:24:15;10.30;;;3.40;;
52320;SDS011;38261;54.090;13.382;2023-02-19T05:25:37;10.60;;;3.03;;
52320;SDS011;38261;54.090;13.382;2023-02-19T05:26:59;10.37;;;3.10;;
52320;SDS011;38261;54.090;13.382;2023-02-19T05:28:21;17.27;;;3.37;;
52320;SDS011;38261;54.090;13.382;2023-02-19T05:29:49;11.67;;;4.47;;
52320;SDS011;38261;54.090;13.382;2023-02-19T05:31:11;21.10;;;3.00;;
52320;SDS011;38261;54.090;13.382;2023-02-19T05:32:34;14.17;;;3.37;;
52320;SDS011;38261;54.090;13.382;2023-02-19T05:33:57;19.73;;;4.17;;
52320;SDS011;38261;54.090;13.382;2023-02-19T05:35:19;18.80;;;3.10;;
52320;SDS011;38261;54.090;13.382;2023-02-19T05:36:41;15.87;;;2.73;;
52320;SDS011;38261;54.090;13.382;2023-02-19T05:38:03;11.67;;;2.13;;
52320;SDS011;38261;54.090;13.382;2023-02-19T05:39:26;16.20;;;2.63;;
52320;SDS011;38261;54.090;13.382;2023-02-19T05:40:48;10.50;;;2.23;;
52320;SDS011;38261;54.090;13.382;2023-02-19T05:42:12;7.43;;;3.33;;
52320;SDS011;38261;54.090;13.382;2023-02-19T05:43:35;15.43;;;2.37;;
52320;SDS011;38261;54.090;13.382;2023-02-19T05:44:58;14.83;;;3.60;;
52320;SDS011;38261;54.090;13.382;2023-02-19T05:46:22;7.03;;;1.60;;
52320;SDS011;38261;54.090;13.382;2023-02-19T05:47:46;11.17;;;2.20;;
52320;SDS011;38261;54.090;13.382;2023-02-19T05:49:08;10.13;;;2.57;;
52320;SDS011;38261;54.090;13.382;2023-02-19T05:50:31;9.37;;;2.20;;
52320;SDS011;38261;54.090;13.382;2023-02-19T05:51:54;14.17;;;2.90;;
52320;SDS011;38261;54.090;13.382;2023-02-19T05:53:16;12.77;;;1.90;;
52320;SDS011;38261;54.090;13.382;2023-02-19T05:54:38;7.33;;;1.63;;
52320;SDS011;38261;54.090;13.382;2023-02-19T05:56:00;15.17;;;2.53;;
52320;SDS011;38261;54.090;13.382;2023-02-19T05:57:23;10.73;;;2.00;;
52320;SDS011;38261;54.090;13.382;2023-02-19T05:58:45;17.10;;;2.00;;
52320;SDS011;38261;54.090;13.382;2023-02-19T06:00:08;9.73;;;2.10;;
52320;SDS011;38261;54.090;13.382;2023-02-19T06:01:31;10.17;;;1.97;;
52320;SDS011;38261;54.090;13.382;2023-02-19T06:02:54;12.83;;;2.27;;
52320;SDS011;38261;54.090;13.382;2023-02-19T06:04:16;12.80;;;1.90;;
52320;SDS011;38261;54.090;13.382;2023-02-19T06:05:40;9.43;;;2.00;;
52320;SDS011;38261;54.090;13.382;2023-02-19T06:07:02;10.03;;;1.63;;
52320;SDS011;38261;54.090;13.382;2023-02-19T06:08:24;11.40;;;2.20;;
52320;SDS011;38261;54.090;13.382;2023-02-19T06:09:49;9.90;;;2.50;;
52320;SDS011;38261;54.090;13.382;2023-02-19T06:11:11;13.30;;;2.07;;
52320;SDS011;38261;54.090;13.382;2023-02-19T06:12:33;8.53;;;2.17;;
52320;SDS011;38261;54.090;13.382;2023-02-19T06:13:55;12.97;;;2.07;;
52320;SDS011;38261;54.090;13.382;2023-02-19T06:15:17;13.83;;;1.87;;
52320;SDS011;38261;54.090;13.382;2023-02-19T06:16:40;12.33;;;1.90;;
52320;SDS011;38261;54.090;13.382;2023-02-19T06:18:02;14.90;;;2.40;;
52320;SDS011;38261;54.090;13.382;2023-02-19T06:19:24;10.37;;;2.20;;
52320;SDS011;38261;54.090;13.382;2023-02-19T06:20:46;12.33;;;2.10;;
52320;SDS011;38261;54.090;13.382;2023-02-19T06:22:09;8.27;;;1.90;;
52320;SDS011;38261;54.090;13.382;2023-02-19T06:23:31;4.87;;;1.47;;
52320;SDS011;38261;54.090;13.382;2023-02-19T06:24:53;16.47;;;1.97;;
52320;SDS011;38261;54.090;13.382;2023-02-19T06:26:19;16.23;;;3.00;;
52320;SDS011;38261;54.090;13.382;2023-02-19T06:27:43;12.83;;;1.70;;
52320;SDS011;38261;54.090;13.382;2023-02-19T06:29:05;13.27;;;2.10;;
52320;SDS011;38261;54.090;13.382;2023-02-19T06:30:27;10.17;;;1.60;;
52320;SDS011;38261;54.090;13.382;2023-02-19T06:31:50;15.10;;;2.80;;
52320;SDS011;38261;54.090;13.382;2023-02-19T06:33:12;7.10;;;1.53;;
52320;SDS011;38261;54.090;13.382;2023-02-19T06:34:34;10.20;;;2.10;;
52320;SDS011;38261;54.090;13.382;2023-02-19T06:35:57;14.50;;;2.00;;
52320;SDS011;38261;54.090;13.382;2023-02-19T06:37:20;7.53;;;1.80;;
52320;SDS011;38261;54.090;13.382;2023-02-19T06:38:43;9.27;;;1.70;;
52320;SDS011;38261;54.090;13.382;2023-02-19T06:40:05;6.10;;;1.80;;
52320;SDS011;38261;54.090;13.382;2023-02-19T06:41:28;9.53;;;2.33;;
52320;SDS011;38261;54.090;13.382;2023-02-19T06:42:50;15.63;;;2.57;;
52320;SDS011;38261;54.090;13.382;2023-02-19T06:44:12;14.20;;;2.47;;
52320;SDS011;38261;54.090;13.382;2023-02-19T06:45:34;7.67;;;1.67;;
52320;SDS011;38261;54.090;13.382;2023-02-19T06:46:57;11.20;;;1.80;;
52320;SDS011;38261;54.090;13.382;2023-02-19T06:48:19;9.50;;;1.83;;
52320;SDS011;38261;54.090;13.382;2023-02-19T06:49:41;11.67;;;2.27;;
52320;SDS011;38261;54.090;13.382;2023-02-19T06:51:03;12.73;;;1.80;;
52320;SDS011;38261;54.090;13.382;2023-02-19T06:52:25;13.70;;;1.77;;
52320;SDS011;38261;54.090;13.382;2023-02-19T06:53:48;8.50;;;2.00;;
52320;SDS011;38261;54.090;13.382;2023-02-19T06:55:10;6.70;;;1.80;;
52320;SDS011;38261;54.090;13.382;2023-02-19T06:56:36;14.33;;;2.20;;
52320;SDS011;38261;54.090;13.382;2023-02-19T06:58:00;11.53;;;1.93;;
52320;SDS011;38261;54.090;13.382;2023-02-19T06:59:22;7.87;;;1.90;;
52320;SDS011;38261;54.090;13.382;2023-02-19T07:00:44;4.40;;;2.00;;
52320;SDS011;38261;54.090;13.382;2023-02-19T07:02:08;12.63;;;1.93;;
52320;SDS011;38261;54.090;13.382;2023-02-19T07:03:31;21.27;;;2.20;;
52320;SDS011;38261;54.090;13.382;2023-02-19T07:04:53;5.30;;;1.67;;
52320;SDS011;38261;54.090;13.382;2023-02-19T07:06:15;13.57;;;1.70;;
52320;SDS011;38261;54.090;13.382;2023-02-19T07:07:37;9.40;;;3.33;;
52320;SDS011;38261;54.090;13.382;2023-02-19T07:08:59;11.60;;;2.03;;
52320;SDS011;38261;54.090;13.382;2023-02-19T07:10:22;24.03;;;3.20;;
52320;SDS011;38261;54.090;13.382;2023-02-19T07:11:44;7.27;;;1.63;;
52320;SDS011;38261;54.090;13.382;2023-02-19T07:13:06;5.10;;;1.40;;
52320;SDS011;38261;54.090;13.382;2023-02-19T07:14:28;7.00;;;1.90;;
52320;SDS011;38261;54.090;13.382;2023-02-19T07:15:51;7.30;;;1.17;;
52320;SDS011;38261;54.090;13.382;2023-02-19T07:17:18;8.80;;;2.00;;
52320;SDS011;38261;54.090;13.382;2023-02-19T07:18:40;14.27;;;1.93;;
52320;SDS011;38261;54.090;13.382;2023-02-19T07:20:03;18.33;;;2.57;;
52320;SDS011;38261;54.090;13.382;2023-02-19T07:21:26;8.93;;;3.03;;
52320;SDS011;38261;54.090;13.382;2023-02-19T07:22:49;16.43;;;2.03;;
52320;SDS011;38261;54.090;13.382;2023-02-19T07:24:11;6.50;;;1.60;;
52320;SDS011;38261;54.090;13.382;2023-02-19T07:25:33;6.30;;;2.40;;
52320;SDS011;38261;54.090;13.382;2023-02-19T07:26:57;8.47;;;1.70;;
52320;SDS011;38261;54.090;13.382;2023-02-19T07:28:19;6.73;;;1.73;;
52320;SDS011;38261;54.090;13.382;2023-02-19T07:29:41;11.70;;;1.80;;
52320;SDS011;38261;54.090;13.382;2023-02-19T07:31:04;13.07;;;1.80;;
52320;SDS011;38261;54.090;13.382;2023-02-19T07:32:26;12.63;;;1.60;;
52320;SDS011;38261;54.090;13.382;2023-02-19T07:33:49;18.00;;;2.23;;
52320;SDS011;38261;54.090;13.382;2023-02-19T07:35:11;14.93;;;1.70;;
52320;SDS011;38261;54.090;13.382;2023-02-19T07:36:33;10.13;;;1.93;;
52320;SDS011;38261;54.090;13.382;2023-02-19T07:37:55;8.10;;;1.77;;
52320;SDS011;38261;54.090;13.382;2023-02-19T07:39:17;8.50;;;1.93;;
52320;SDS011;38261;54.090;13.382;2023-02-19T07:40:39;14.37;;;1.80;;
52320;SDS011;38261;54.090;13.382;2023-02-19T07:42:02;12.30;;;3.00;;
52320;SDS011;38261;54.090;13.382;2023-02-19T07:43:24;10.30;;;2.03;;
52320;SDS011;38261;54.090;13.382;2023-02-19T07:44:48;8.90;;;2.00;;
52320;SDS011;38261;54.090;13.382;2023-02-19T07:46:11;18.90;;;2.20;;
52320;SDS011;38261;54.090;13.382;2023-02-19T07:47:34;8.67;;;2.10;;
52320;SDS011;38261;54.090;13.382;2023-02-19T07:48:56;6.23;;;2.30;;
52320;SDS011;38261;54.090;13.382;2023-02-19T07:50:19;10.10;;;2.40;;
52320;SDS011;38261;54.090;13.382;2023-02-19T07:51:41;10.40;;;1.73;;
52320;SDS011;38261;54.090;13.382;2023-02-19T07:53:04;14.23;;;1.67;;
52320;SDS011;38261;54.090;13.382;2023-02-19T07:54:27;18.90;;;2.37;;
52320;SDS011;38261;54.090;13.382;2023-02-19T07:55:49;9.40;;;2.40;;
52320;SDS011;38261;54.090;13.382;2023-02-19T07:57:11;8.50;;;1.90;;
52320;SDS011;38261;54.090;13.382;2023-02-19T07:58:33;6.87;;;2.53;;
52320;SDS011;38261;54.090;13.382;2023-02-19T07:59:55;14.87;;;2.60;;
52320;SDS011;38261;54.090;13.382;2023-02-19T08:01:20;11.77;;;2.20;;
52320;SDS011;38261;54.090;13.382;2023-02-19T08:03:04;10.83;;;2.13;;
52320;SDS011;38261;54.090;13.382;2023-02-19T08:04:26;11.17;;;2.63;;
52320;SDS011;38261;54.090;13.382;2023-02-19T08:05:48;5.07;;;1.80;;
52320;SDS011;38261;54.090;13.382;2023-02-19T08:07:11;7.97;;;2.50;;
52320;SDS011;38261;54.090;13.382;2023-02-19T08:08:34;10.30;;;1.87;;
52320;SDS011;38261;54.090;13.382;2023-02-19T08:09:56;10.33;;;2.67;;
52320;SDS011;38261;54.090;13.382;2023-02-19T08:11:38;5.23;;;1.90;;
52320;SDS011;38261;54.090;13.382;2023-02-19T08:13:19;6.17;;;2.20;;
52320;SDS011;38261;54.090;13.382;2023-02-19T08:14:45;17.60;;;2.10;;
52320;SDS011;38261;54.090;13.382;2023-02-19T08:16:11;12.03;;;3.70;;
52320;SDS011;38261;54.090;13.382;2023-02-19T08:17:42;13.87;;;2.23;;
52320;SDS011;38261;54.090;13.382;2023-02-19T08:19:04;13.13;;;2.47;;
52320;SDS011;38261;54.090;13.382;2023-02-19T08:20:26;12.20;;;2.40;;
52320;SDS011;38261;54.090;13.382;2023-02-19T08:21:48;6.37;;;1.87;;
52320;SDS011;38261;54.090;13.382;2023-02-19T08:23:11;12.90;;;2.80;;
52320;SDS011;38261;54.090;13.382;2023-02-19T08:24:33;13.53;;;2.43;;
52320;SDS011;38261;54.090;13.382;2023-02-19T08:25:58;4.40;;;1.57;;
52320;SDS011;38261;54.090;13.382;2023-02-19T08:27:21;14.27;;;1.97;;
52320;SDS011;38261;54.090;13.382;2023-02-19T08:28:43;4.60;;;1.47;;
52320;SDS011;38261;54.090;13.382;2023-02-19T08:30:05;9.30;;;1.53;;
52320;SDS011;38261;54.090;13.382;2023-02-19T08:31:29;8.37;;;2.73;;
52320;SDS011;38261;54.090;13.382;2023-02-19T08:32:52;12.13;;;2.23;;
52320;SDS011;38261;54.090;13.382;2023-02-19T08:34:14;12.60;;;2.67;;
52320;SDS011;38261;54.090;13.382;2023-02-19T08:35:36;16.10;;;2.17;;
52320;SDS011;38261;54.090;13.382;2023-02-19T08:36:59;14.57;;;2.53;;
52320;SDS011;38261;54.090;13.382;2023-02-19T08:38:22;16.13;;;2.27;;
52320;SDS011;38261;54.090;13.382;2023-02-19T08:39:44;9.63;;;2.10;;
52320;SDS011;38261;54.090;13.382;2023-02-19T08:41:07;4.63;;;1.80;;
52320;SDS011;38261;54.090;13.382;2023-02-19T08:42:31;7.30;;;2.20;;
52320;SDS011;38261;54.090;13.382;2023-02-19T08:43:54;7.37;;;2.20;;